createdAt,value
2018-04-02T00:01:42.357Z,90.63
2018-04-02T00:04:09.809Z,84.00
2018-04-02T00:06:38.077Z,93.57
2018-04-02T00:09:06.114Z,95.57
2018-04-02T00:11:34.061Z,98.00
2018-04-02T00:14:03.406Z,106.77
2018-04-02T00:16:30.888Z,112.27
2018-04-02T00:18:58.757Z,147.93
2018-04-02T00:21:26.754Z,160.23
2018-04-02T00:23:55.605Z,160.83
2018-04-02T00:26:23.009Z,142.80
2018-04-02T00:28:50.514Z,141.10
2018-04-02T00:31:18.290Z,135.10
2018-04-02T00:33:46.624Z,118.90
2018-04-02T00:36:15.568Z,113.53
2018-04-02T00:38:43.027Z,106.63
2018-04-02T00:41:11.436Z,98.90
2018-04-02T00:43:39.586Z,102.70
2018-04-02T00:46:07.074Z,105.20
2018-04-02T00:48:34.548Z,115.73
2018-04-02T00:51:02.037Z,156.40
2018-04-02T00:53:29.506Z,163.97
2018-04-02T00:55:57.368Z,143.67
2018-04-02T00:58:24.839Z,140.53
2018-04-02T01:00:53.411Z,143.30
2018-04-02T01:03:21.645Z,138.83
2018-04-02T01:05:49.345Z,132.97
2018-04-02T01:08:17.141Z,127.87
2018-04-02T01:10:46.018Z,126.70
2018-04-02T01:13:13.997Z,124.97
2018-04-02T01:15:41.492Z,117.60
2018-04-02T01:18:09.290Z,113.13
2018-04-02T01:20:36.846Z,110.90
2018-04-02T01:23:04.623Z,107.10
2018-04-02T01:25:32.177Z,107.83
2018-04-02T01:27:59.672Z,108.27
2018-04-02T01:30:27.179Z,108.10
2018-04-02T01:32:55.202Z,105.10
2018-04-02T01:35:23.322Z,104.70
2018-04-02T01:37:51.589Z,105.97
2018-04-02T01:40:20.285Z,103.00
2018-04-02T01:42:48.465Z,102.53
2018-04-02T01:45:16.378Z,105.60
2018-04-02T01:47:45.317Z,101.57
2018-04-02T01:50:15.006Z,94.47
2018-04-02T01:52:42.475Z,97.87
2018-04-02T01:55:10.223Z,97.90
2018-04-02T01:57:37.908Z,98.93
2018-04-02T02:00:05.373Z,98.60
2018-04-02T02:02:33.937Z,97.47
2018-04-02T02:05:01.433Z,93.90
2018-04-02T02:07:29.254Z,98.20
2018-04-02T02:09:58.125Z,94.47
2018-04-02T02:12:26.018Z,92.63
2018-04-02T02:14:54.106Z,92.80
2018-04-02T02:17:21.988Z,97.57
2018-04-02T02:19:50.251Z,92.40
2018-04-02T02:22:18.410Z,89.80
2018-04-02T02:24:46.654Z,92.43
2018-04-02T02:27:15.010Z,92.37
2018-04-02T02:29:42.485Z,90.33
2018-04-02T02:32:10.005Z,93.27
2018-04-02T02:34:39.411Z,91.73
2018-04-02T02:37:07.925Z,90.13
2018-04-02T02:39:35.627Z,86.47
2018-04-02T02:42:03.148Z,87.50
2018-04-02T02:44:32.948Z,89.50
2018-04-02T02:47:00.873Z,88.80
2018-04-02T02:49:29.115Z,87.63
2018-04-02T02:51:56.674Z,83.97
2018-04-02T02:54:24.134Z,86.23
2018-04-02T02:56:52.229Z,90.27
2018-04-02T02:59:19.774Z,90.73
2018-04-02T03:01:47.453Z,87.17
2018-04-02T03:04:16.224Z,88.10
2018-04-02T03:06:43.720Z,83.93
2018-04-02T03:09:12.289Z,86.53
2018-04-02T03:11:40.878Z,82.00
2018-04-02T03:14:09.440Z,84.57
2018-04-02T03:16:37.913Z,81.87
2018-04-02T03:19:05.960Z,81.50
2018-04-02T03:21:33.406Z,79.80
2018-04-02T03:24:01.109Z,85.53
2018-04-02T03:26:28.563Z,82.73
2018-04-02T03:28:57.567Z,84.87
2018-04-02T03:31:25.027Z,80.27
2018-04-02T03:33:52.474Z,83.47
2018-04-02T03:36:20.221Z,77.57
2018-04-02T03:38:47.683Z,78.27
2018-04-02T03:41:15.171Z,72.50
2018-04-02T03:43:43.016Z,68.00
2018-04-02T03:46:11.778Z,62.83
2018-04-02T03:55:24.159Z,74.97
2018-04-02T03:57:52.385Z,77.10
2018-04-02T04:00:19.902Z,77.70
2018-04-02T04:09:32.734Z,72.00
2018-04-02T04:12:00.703Z,73.67
2018-04-02T04:14:28.614Z,74.80
2018-04-02T04:16:56.320Z,74.60
2018-04-02T04:19:25.036Z,76.50
2018-04-02T04:21:53.322Z,76.03
2018-04-02T04:24:22.078Z,76.27
2018-04-02T04:26:49.572Z,77.30
2018-04-02T04:29:18.030Z,73.83
2018-04-02T04:31:45.532Z,69.63
2018-04-02T04:34:12.992Z,71.87
2018-04-02T04:36:41.453Z,74.83
2018-04-02T04:39:08.927Z,72.73
2018-04-02T04:41:37.145Z,71.47
2018-04-02T04:44:05.026Z,73.67
2018-04-02T04:46:33.233Z,71.90
2018-04-02T04:49:00.798Z,64.13
2018-04-02T04:51:29.166Z,67.57
2018-04-02T04:53:56.775Z,66.73
2018-04-02T04:56:24.538Z,64.70
2018-04-02T04:58:52.029Z,63.57
2018-04-02T05:01:20.554Z,64.80
2018-04-02T05:03:49.069Z,60.73
2018-04-02T05:06:16.538Z,59.80
2018-04-02T05:08:44.264Z,62.87
2018-04-02T05:11:13.214Z,63.10
2018-04-02T05:13:41.076Z,62.63
2018-04-02T05:16:08.554Z,62.00
2018-04-02T05:18:37.435Z,63.50
2018-04-02T05:21:05.263Z,63.27
2018-04-02T05:23:33.238Z,60.30
2018-04-02T05:26:00.692Z,61.77
2018-04-02T05:28:30.108Z,62.57
2018-04-02T05:30:59.240Z,60.23
2018-04-02T05:33:26.674Z,65.87
2018-04-02T05:35:54.436Z,62.77
2018-04-02T05:38:21.961Z,63.63
2018-04-02T05:40:50.200Z,61.53
2018-04-02T05:43:18.203Z,61.27
2018-04-02T05:45:46.069Z,62.40
2018-04-02T05:48:14.089Z,63.40
2018-04-02T05:50:42.214Z,61.70
2018-04-02T05:53:10.439Z,61.43
2018-04-02T05:55:38.517Z,62.97
2018-04-02T05:58:06.922Z,65.97
2018-04-02T06:00:34.617Z,62.97
2018-04-02T06:03:02.865Z,59.57
2018-04-02T06:05:30.385Z,63.10
2018-04-02T06:07:57.830Z,61.50
2018-04-02T06:10:25.637Z,65.03
2018-04-02T06:12:53.641Z,62.87
2018-04-02T06:15:22.392Z,63.47
2018-04-02T06:17:51.442Z,62.43
2018-04-02T06:20:18.920Z,62.83
2018-04-02T06:22:47.190Z,65.00
2018-04-02T06:25:14.951Z,63.67
2018-04-02T06:27:42.427Z,66.77
2018-04-02T06:30:09.984Z,67.90
2018-04-02T06:32:37.446Z,64.80
2018-04-02T06:35:05.424Z,63.27
2018-04-02T06:37:33.316Z,63.17
2018-04-02T06:40:00.786Z,64.13
2018-04-02T06:42:29.829Z,64.27
2018-04-02T06:44:58.319Z,60.50
2018-04-02T06:47:25.789Z,61.53
2018-04-02T06:49:53.226Z,57.00
2018-04-02T06:52:20.784Z,58.87
2018-04-02T06:54:48.311Z,57.80
2018-04-02T06:57:15.799Z,54.27
2018-04-02T06:59:43.263Z,53.27
2018-04-02T07:02:10.782Z,58.20
2018-04-02T07:04:38.684Z,54.70
2018-04-02T07:07:06.552Z,56.90
2018-04-02T07:09:34.322Z,57.17
2018-04-02T07:12:02.144Z,60.00
2018-04-02T07:14:29.963Z,54.83
2018-04-02T07:16:57.449Z,58.43
2018-04-02T07:19:25.268Z,55.90
2018-04-02T07:21:52.744Z,56.13
2018-04-02T07:24:20.790Z,52.77
2018-04-02T07:26:48.357Z,52.97
2018-04-02T07:29:15.840Z,53.13
2018-04-02T07:31:44.064Z,53.10
2018-04-02T07:34:12.044Z,53.90
2018-04-02T07:36:39.819Z,52.30
2018-04-02T07:39:07.421Z,52.00
2018-04-02T07:41:35.625Z,52.97
2018-04-02T07:44:03.516Z,52.23
2018-04-02T07:46:30.981Z,51.03
2018-04-02T07:48:58.470Z,51.67
2018-04-02T07:51:26.730Z,53.17
2018-04-02T07:53:55.034Z,48.60
2018-04-02T07:56:22.959Z,48.33
2018-04-02T07:58:50.455Z,47.90
2018-04-02T08:01:18.137Z,45.10
2018-04-02T08:03:45.737Z,46.30
2018-04-02T08:06:13.189Z,43.17
2018-04-02T08:08:40.999Z,44.90
2018-04-02T08:11:09.539Z,45.77
2018-04-02T08:13:37.505Z,42.10
2018-04-02T08:16:04.968Z,45.53
2018-04-02T08:18:33.786Z,42.90
2018-04-02T08:21:02.013Z,40.07
2018-04-02T08:23:29.473Z,40.00
2018-04-02T08:25:57.483Z,42.13
2018-04-02T08:28:25.692Z,39.57
2018-04-02T08:30:53.159Z,42.30
2018-04-02T08:33:20.613Z,42.20
2018-04-02T08:35:48.608Z,39.20
2018-04-02T08:38:16.474Z,39.73
2018-04-02T08:40:44.019Z,39.07
2018-04-02T08:43:11.477Z,37.90
2018-04-02T08:45:39.245Z,40.33
2018-04-02T08:48:06.874Z,34.93
2018-04-02T08:50:35.019Z,34.60
2018-04-02T08:53:03.265Z,36.50
2018-04-02T08:55:30.731Z,32.53
2018-04-02T08:57:58.199Z,33.27
2018-04-02T09:00:26.418Z,32.33
2018-04-02T09:02:53.974Z,32.57
2018-04-02T09:05:21.832Z,32.13
2018-04-02T09:07:49.297Z,32.37
2018-04-02T09:10:17.157Z,30.63
2018-04-02T09:12:44.849Z,34.30
2018-04-02T09:15:12.727Z,33.90
2018-04-02T09:17:40.481Z,29.40
2018-04-02T09:20:08.349Z,29.00
2018-04-02T09:22:35.833Z,31.13
2018-04-02T09:25:03.699Z,27.53
2018-04-02T09:27:32.014Z,30.13
2018-04-02T09:29:59.500Z,24.93
2018-04-02T09:32:26.984Z,22.83
2018-04-02T09:34:54.834Z,23.50
2018-04-02T09:37:22.496Z,25.00
2018-04-02T09:39:50.368Z,25.27
2018-04-02T09:42:17.821Z,24.23
2018-04-02T09:44:45.604Z,26.33
2018-04-02T09:47:14.173Z,27.37
2018-04-02T09:49:41.834Z,23.10
2018-04-02T09:52:09.296Z,23.80
2018-04-02T09:54:37.556Z,23.60
2018-04-02T09:57:05.020Z,21.37
2018-04-02T09:59:32.588Z,21.30
2018-04-02T10:01:59.990Z,21.63
2018-04-02T10:04:30.608Z,21.37
2018-04-02T10:06:58.046Z,22.30
2018-04-02T10:09:26.284Z,20.93
2018-04-02T10:11:55.173Z,45.20
2018-04-02T10:14:23.144Z,42.00
2018-04-02T10:16:50.678Z,23.00
2018-04-02T10:19:18.596Z,22.53
2018-04-02T10:21:46.813Z,21.50
2018-04-02T10:24:14.500Z,20.90
2018-04-02T10:26:42.421Z,23.70
2018-04-02T10:29:09.864Z,22.73
2018-04-02T10:31:38.564Z,21.37
2018-04-02T10:34:06.070Z,20.20
2018-04-02T10:36:33.999Z,21.13
2018-04-02T10:39:01.821Z,20.07
2018-04-02T10:41:29.599Z,20.63
2018-04-02T10:43:58.277Z,21.40
2018-04-02T10:46:25.928Z,22.13
2018-04-02T10:48:53.371Z,22.23
2018-04-02T10:51:20.846Z,20.50
2018-04-02T10:53:49.190Z,20.80
2018-04-02T10:56:16.669Z,21.07
2018-04-02T10:58:44.126Z,18.60
2018-04-02T11:01:11.778Z,19.93
2018-04-02T11:03:39.655Z,19.53
2018-04-02T11:06:07.614Z,18.87
2018-04-02T11:08:35.081Z,20.33
2018-04-02T11:11:04.845Z,21.10
2018-04-02T11:13:32.752Z,19.80
2018-04-02T11:16:00.208Z,18.87
2018-04-02T11:18:28.148Z,19.93
2018-04-02T11:20:55.620Z,19.60
2018-04-02T11:23:23.109Z,20.47
2018-04-02T11:25:50.855Z,19.10
2018-04-02T11:28:18.722Z,19.83
2018-04-02T11:30:46.483Z,17.70
2018-04-02T11:33:13.966Z,16.87
2018-04-02T11:35:42.422Z,16.87
2018-04-02T11:38:09.917Z,16.37
2018-04-02T11:40:37.757Z,14.43
2018-04-02T11:43:05.509Z,14.60
2018-04-02T11:45:33.236Z,16.20
2018-04-02T11:48:00.770Z,16.03
2018-04-02T11:50:28.273Z,14.90
2018-04-02T11:52:55.761Z,15.87
2018-04-02T11:55:23.980Z,15.57
2018-04-02T11:57:51.476Z,15.23
2018-04-02T12:00:18.941Z,17.50
2018-04-02T12:02:46.393Z,16.03
2018-04-02T12:05:14.097Z,17.13
2018-04-02T12:07:41.602Z,13.80
2018-04-02T12:10:09.184Z,32.70
2018-04-02T12:12:37.030Z,84.27
2018-04-02T12:15:05.023Z,11.30
2018-04-02T12:17:33.582Z,7.20
2018-04-02T12:20:01.099Z,6.07
2018-04-02T12:22:28.547Z,5.80
2018-04-02T12:24:55.989Z,6.50
2018-04-02T12:27:24.968Z,7.03
2018-04-02T12:29:53.183Z,6.67
2018-04-02T12:32:20.768Z,5.43
2018-04-02T12:34:48.916Z,4.80
2018-04-02T12:37:16.673Z,5.30
2018-04-02T12:39:44.178Z,6.27
2018-04-02T12:42:12.065Z,5.20
2018-04-02T12:44:39.905Z,6.60
2018-04-02T12:47:08.121Z,6.83
2018-04-02T12:49:35.726Z,6.13
2018-04-02T12:52:03.711Z,7.30
2018-04-02T12:54:31.159Z,6.70
2018-04-02T12:56:58.828Z,6.23
2018-04-02T12:59:26.288Z,6.87
2018-04-02T13:01:53.728Z,6.90
2018-04-02T13:04:21.409Z,7.70
2018-04-02T13:06:49.190Z,5.90
2018-04-02T13:09:18.497Z,6.77
2018-04-02T13:11:47.151Z,6.70
2018-04-02T13:14:15.104Z,7.50
2018-04-02T13:16:42.649Z,6.70
2018-04-02T13:19:10.432Z,6.30
2018-04-02T13:21:38.064Z,7.27
2018-04-02T13:24:05.499Z,7.40
2018-04-02T13:26:34.040Z,6.80
2018-04-02T13:29:01.471Z,5.90
2018-04-02T13:31:29.048Z,8.57
2018-04-02T13:33:56.506Z,7.33
2018-04-02T13:36:26.931Z,7.50
2018-04-02T13:38:54.370Z,7.00
2018-04-02T13:41:22.459Z,7.13
2018-04-02T13:43:50.341Z,6.27
2018-04-02T13:46:17.806Z,7.20
2018-04-02T13:48:46.072Z,7.70
2018-04-02T13:51:13.518Z,7.67
2018-04-02T13:53:41.012Z,7.70
2018-04-02T13:56:08.901Z,6.97
2018-04-02T13:58:36.372Z,7.87
2018-04-02T14:01:03.914Z,38.07
2018-04-02T14:03:31.430Z,20.63
2018-04-02T14:05:59.261Z,25.47
2018-04-02T14:08:27.073Z,8.03
2018-04-02T14:10:55.865Z,6.03
2018-04-02T14:13:24.311Z,7.40
2018-04-02T14:15:51.758Z,6.50
2018-04-02T14:18:19.636Z,6.17
2018-04-02T14:20:47.955Z,6.40
2018-04-02T14:23:16.472Z,5.90
2018-04-02T14:25:44.007Z,5.43
2018-04-02T14:28:11.861Z,5.57
2018-04-02T14:30:39.313Z,4.23
2018-04-02T14:33:07.520Z,4.40
2018-04-02T14:35:35.332Z,4.93
2018-04-02T14:38:03.936Z,4.83
2018-04-02T14:40:31.398Z,4.33
2018-04-02T14:42:58.848Z,4.30
2018-04-02T14:45:26.809Z,4.10
2018-04-02T14:47:55.030Z,4.30
2018-04-02T14:50:22.500Z,4.87
2018-04-02T14:52:52.100Z,4.47
2018-04-02T14:55:19.563Z,4.00
2018-04-02T14:57:47.002Z,4.00
2018-04-02T15:00:14.514Z,4.60
2018-04-02T15:02:43.028Z,4.00
2018-04-02T15:05:10.481Z,4.70
2018-04-02T15:07:37.916Z,3.97
2018-04-02T15:10:05.432Z,4.50
2018-04-02T15:12:33.225Z,4.80
2018-04-02T15:15:02.088Z,4.93
2018-04-02T15:17:30.014Z,4.47
2018-04-02T15:19:57.706Z,3.77
2018-04-02T15:22:25.180Z,4.00
2018-04-02T15:24:52.906Z,3.63
2018-04-02T15:27:21.009Z,119.40
2018-04-02T15:29:48.488Z,17.70
2018-04-02T15:32:16.792Z,25.83
2018-04-02T15:34:46.932Z,7.93
2018-04-02T15:37:14.734Z,2.67
2018-04-02T15:39:42.352Z,3.30
2018-04-02T15:42:10.177Z,3.00
2018-04-02T15:44:38.987Z,2.60
2018-04-02T15:47:06.457Z,3.40
2018-04-02T15:49:33.902Z,2.97
2018-04-02T15:52:01.397Z,3.50
2018-04-02T15:54:28.843Z,2.73
2018-04-02T15:56:56.340Z,2.80
2018-04-02T15:59:24.907Z,2.60
2018-04-02T16:01:52.419Z,3.73
2018-04-02T16:04:20.331Z,38.77
2018-04-02T16:06:47.819Z,37.27
2018-04-02T16:09:16.038Z,37.23
2018-04-02T16:11:44.221Z,7.13
2018-04-02T16:14:12.008Z,3.70
2018-04-02T16:16:39.450Z,4.10
2018-04-02T16:19:07.270Z,3.30
2018-04-02T16:21:34.868Z,3.80
2018-04-02T16:24:02.376Z,4.13
2018-04-02T16:26:30.543Z,3.80
2018-04-02T16:28:58.445Z,3.60
2018-04-02T16:31:26.279Z,3.53
2018-04-02T16:33:54.268Z,3.30
2018-04-02T16:36:22.863Z,3.50
2018-04-02T16:38:50.816Z,3.83
2018-04-02T16:41:19.454Z,3.53
2018-04-02T16:43:47.242Z,3.43
2018-04-02T16:46:14.693Z,3.90
2018-04-02T16:48:42.155Z,4.50
2018-04-02T16:51:09.617Z,4.30
2018-04-02T16:53:37.145Z,4.97
2018-04-02T16:56:04.599Z,5.00
2018-04-02T16:58:32.178Z,5.47
2018-04-02T17:00:59.630Z,4.73
2018-04-02T17:03:27.288Z,5.13
2018-04-02T17:05:54.733Z,5.50
2018-04-02T17:08:22.176Z,5.23
2018-04-02T17:10:50.126Z,5.60
2018-04-02T17:13:17.935Z,5.17
2018-04-02T17:15:45.412Z,5.10
2018-04-02T17:18:13.958Z,5.13
2018-04-02T17:20:41.537Z,6.40
2018-04-02T17:23:09.332Z,6.20
2018-04-02T17:25:37.633Z,6.60
2018-04-02T17:28:05.475Z,5.53
2018-04-02T17:30:33.217Z,5.90
2018-04-02T17:33:00.653Z,6.47
2018-04-02T17:35:28.683Z,5.60
2018-04-02T17:37:56.144Z,6.27
2018-04-02T17:40:23.979Z,6.00
2018-04-02T17:42:51.762Z,5.93
2018-04-02T17:45:19.719Z,6.20
2018-04-02T17:47:47.956Z,5.90
2018-04-02T17:50:15.431Z,6.03
2018-04-02T17:52:43.667Z,5.90
2018-04-02T17:55:11.174Z,6.23
2018-04-02T17:57:39.413Z,6.40
2018-04-02T18:00:06.945Z,6.70
2018-04-02T18:02:34.461Z,6.30
2018-04-02T18:05:02.761Z,7.30
2018-04-02T18:07:30.242Z,7.10
2018-04-02T18:09:57.801Z,7.30
2018-04-02T18:12:25.762Z,7.00
2018-04-02T18:14:53.658Z,6.80
2018-04-02T18:17:22.467Z,6.03
2018-04-02T18:19:49.972Z,7.07
2018-04-02T18:22:17.899Z,7.53
2018-04-02T18:24:45.345Z,7.20
2018-04-02T18:27:12.804Z,185.90
2018-04-02T18:29:40.864Z,65.30
2018-04-02T18:32:08.380Z,35.83
2018-04-02T18:34:35.846Z,21.30
2018-04-02T18:37:03.646Z,12.23
2018-04-02T18:39:31.099Z,8.10
2018-04-02T18:41:58.961Z,7.37
2018-04-02T18:44:27.017Z,8.00
2018-04-02T18:46:54.476Z,8.37
2018-04-02T18:49:22.027Z,7.30
2018-04-02T18:51:49.504Z,8.33
2018-04-02T18:54:17.056Z,8.77
2018-04-02T18:56:44.570Z,8.80
2018-04-02T18:59:12.889Z,8.50
2018-04-02T19:01:40.477Z,8.87
2018-04-02T19:04:08.731Z,8.17
2018-04-02T19:06:36.603Z,7.93
2018-04-02T19:09:04.074Z,8.30
2018-04-02T19:11:31.787Z,9.03
2018-04-02T19:13:59.685Z,8.80
2018-04-02T19:16:27.170Z,9.23
2018-04-02T19:18:55.714Z,8.60
2018-04-02T19:21:23.394Z,9.73
2018-04-02T19:23:50.888Z,9.70
2018-04-02T19:26:18.371Z,10.10
2018-04-02T19:28:46.265Z,9.50
2018-04-02T19:31:13.726Z,8.80
2018-04-02T19:33:41.196Z,8.67
2018-04-02T19:36:09.085Z,8.63
2018-04-02T19:38:37.290Z,8.23
2018-04-02T19:41:05.101Z,9.43
2018-04-02T19:43:33.475Z,8.97
2018-04-02T19:46:00.953Z,8.70
2018-04-02T19:48:29.161Z,7.90
2018-04-02T19:50:57.681Z,8.70
2018-04-02T19:53:25.116Z,8.43
2018-04-02T19:55:52.917Z,8.10
2018-04-02T19:58:20.369Z,7.23
2018-04-02T20:00:47.857Z,7.00
2018-04-02T20:03:15.314Z,7.10
2018-04-02T20:05:43.168Z,7.83
2018-04-02T20:08:11.381Z,6.67
2018-04-02T20:10:39.542Z,6.73
2018-04-02T20:13:08.214Z,6.60
2018-04-02T20:15:35.682Z,5.20
2018-04-02T20:18:03.593Z,6.03
2018-04-02T20:20:32.746Z,5.83
2018-04-02T20:23:00.240Z,5.30
2018-04-02T20:25:27.666Z,5.30
2018-04-02T20:27:55.133Z,4.90
2018-04-02T20:30:23.153Z,4.67
2018-04-02T20:32:51.392Z,5.67
2018-04-02T20:35:19.692Z,5.83
2018-04-02T20:37:47.170Z,5.97
2018-04-02T20:40:15.893Z,6.40
2018-04-02T20:42:43.380Z,5.90
2018-04-02T20:45:11.902Z,5.90
2018-04-02T20:47:40.343Z,6.07
2018-04-02T20:50:07.855Z,5.70
2018-04-02T20:52:35.462Z,6.47
2018-04-02T20:55:02.914Z,7.03
2018-04-02T20:57:30.817Z,6.70
2018-04-02T20:59:58.278Z,7.50
2018-04-02T21:02:26.374Z,7.87
2018-04-02T21:04:53.825Z,7.40
2018-04-02T21:07:21.307Z,7.43
2018-04-02T21:09:48.764Z,8.63
2018-04-02T21:12:20.510Z,7.70
2018-04-02T21:14:48.199Z,8.90
2018-04-02T21:17:16.238Z,8.00
2018-04-02T21:19:43.710Z,8.47
2018-04-02T21:22:11.175Z,7.10
2018-04-02T21:24:39.383Z,8.40
2018-04-02T21:27:07.034Z,7.70
2018-04-02T21:29:35.897Z,7.93
2018-04-02T21:32:03.369Z,341.87
2018-04-02T21:34:31.576Z,43.47
2018-04-02T21:36:59.479Z,97.27
2018-04-02T21:39:26.958Z,22.93
2018-04-02T21:41:54.862Z,12.13
2018-04-02T21:44:22.724Z,7.83
2018-04-02T21:46:51.396Z,7.50
2018-04-02T21:49:19.652Z,7.47
2018-04-02T21:51:47.473Z,7.37
2018-04-02T21:54:15.066Z,7.47
2018-04-02T21:56:42.516Z,8.00
2018-04-02T21:59:09.981Z,8.53
2018-04-02T22:01:37.464Z,7.77
2018-04-02T22:04:05.680Z,7.93
2018-04-02T22:06:58.018Z,8.30
2018-04-02T22:09:25.520Z,8.43
2018-04-02T22:11:53.277Z,8.67
2018-04-02T22:14:21.139Z,8.00
2018-04-02T22:16:48.638Z,6.93
2018-04-02T22:19:17.221Z,7.27
2018-04-02T22:21:44.856Z,7.40
2018-04-02T22:24:13.399Z,6.13
2018-04-02T22:26:40.942Z,6.20
2018-04-02T22:29:08.393Z,5.70
2018-04-02T22:31:36.411Z,5.70
2018-04-02T22:34:05.948Z,5.00
2018-04-02T22:36:34.618Z,5.27
2018-04-02T22:39:02.120Z,5.70
2018-04-02T22:41:30.353Z,5.40
2018-04-02T22:43:59.121Z,6.03
2018-04-02T22:46:26.609Z,5.70
2018-04-02T22:48:54.949Z,4.90
2018-04-02T22:51:22.424Z,5.20
2018-04-02T22:53:49.861Z,5.60
2018-04-02T22:56:17.417Z,4.93
2018-04-02T22:58:44.928Z,5.53
2018-04-02T23:01:12.391Z,5.90
2018-04-02T23:03:39.952Z,4.90
2018-04-02T23:06:07.652Z,4.60
2018-04-02T23:08:35.423Z,4.23
2018-04-02T23:11:03.281Z,3.57
2018-04-02T23:13:31.045Z,3.70
2018-04-02T23:15:58.504Z,3.00
2018-04-02T23:18:26.194Z,3.23
2018-04-02T23:20:54.397Z,3.33
2018-04-02T23:23:22.919Z,3.00
2018-04-02T23:25:50.481Z,2.60
2018-04-02T23:28:17.980Z,3.10
2018-04-02T23:30:46.546Z,2.57
2018-04-02T23:33:15.154Z,2.80
2018-04-02T23:35:43.018Z,2.70
2018-04-02T23:38:10.749Z,2.57
2018-04-02T23:40:38.259Z,233.27
2018-04-02T23:43:05.896Z,7.40
2018-04-02T23:45:33.858Z,13.17
2018-04-02T23:48:02.166Z,8.90
2018-04-02T23:50:29.601Z,3.60
2018-04-02T23:52:57.141Z,3.27
2018-04-02T23:55:25.434Z,2.10
2018-04-02T23:57:52.977Z,2.47
